KCEU/CEU METAR and TAF weather

Enter ICAO airport designator
Station Type Date Time Source
KCEU METAR 2022/01/26 20:54 UTC NOAA

KCEU 262054Z AUTO 10003KT 10SM CLR 11/M01 A3019 RMK AO2 SLP224 T01111011 55013


Station Type Date Time Source
KCEU Decoded METAR 2022/01/26 20:54 UTC NOAA

CLEMSON-OCONEE COUNTY AIRPORT , SC, United States (KCEU) 34-40N 082-53W 268M
Jan 26, 2022 - 03:54 PM EST / 2022.01.26 2054 UTC
Wind: from the E (100 degrees) at 3 MPH (3 KT):0
Visibility: 10 mile(s):0
Sky conditions: clear
Temperature: 52.0 F (11.1 C)
Dew Point: 30.0 F (-1.1 C)
Relative Humidity: 42%
Pressure (altimeter): 30.19 in. Hg (1022 hPa)
Pressure tendency: 0.04 inches (1.3 hPa) lower than three hours ago
ob: KCEU 262054Z AUTO 10003KT 10SM CLR 11/M01 A3019 RMK AO2 SLP224 T01111011 55013
cycle: 21

Station Type Date Time Source
KCEU TAF UTC NOAA

Error!

Example: see airport list